Sagehen Creek Weather observations

Data are for observation ending at time listed.
 Day   Time    Ave.   Ave.  Ave.  Vector   Max.   Stn.    Total    Solar   Ave.  
  of    of     Air    Rel.  Wind   Wind    Wind   Baro.  Precip.   Rad.    Soil  
Year   Day     Temp.  Hum.  Speed  Dir.    Gust   Pres.                    Temp. 
2015   (PST)    F      %     mph   deg.    mph     mb.     in.     W/m2     F   
------------------------------------------------------------------------------
 239   18:50   63.5    41    0.8   261      1.5   839.9   18.15       1    999.0
 239   19:00   62.0    45    0.1   262      0.8   840.1   18.15       0    999.0
 239   19:10   60.4    48    0.1   238      0.9   840.2   18.15       0    999.0
 239   19:20   59.1    48    0.1   250      0.7   840.3   18.15       0    999.0
 239   19:30   58.2    51    0.0   209      0.7   840.4   18.15       0    999.0
 239   19:40   57.1    53    0.0   245      0.4   840.5   18.15       0    999.0
 239   19:50   56.2    54    0.0     0      0.0   840.6   18.15       0    999.0
 239   20:00   55.3    55    0.3   260      0.9   840.7   18.15       0    999.0
 239   20:10   54.7    56    0.2   228      0.8   840.6   18.15       0    999.0
 239   20:20   53.9    57    0.0   267      0.4   840.5   18.15       0    999.0
 239   20:30   53.3    58    0.2   262      1.3   840.4   18.15       0    999.0
 239   20:40   52.6    60    0.1   242      0.5   840.7   18.15       0    999.0
 239   20:50   52.1    59    0.3   257      0.9   840.7   18.15       0    999.0
 239   21:00   51.7    61    0.2   249      0.9   840.6   18.15       0    999.0
 239   21:10   51.4    62    0.4   240      1.1   840.6   18.15       0    999.0
 239   21:20   50.9    63    0.1   256      0.8   840.6   18.15       0    999.0
 239   21:30   50.6    64    0.0   260      0.8   840.7   18.15       0    999.0
 239   21:40   50.5    63    0.3   262      0.9   840.9   18.15       0    999.0
 239   21:50   50.2    65    0.1   241      0.9   840.7   18.15       0    999.0
 239   22:00   49.7    65    0.2   258      0.8   840.4   18.15       0    999.0
 239   22:10   49.2    66    0.1   255      0.6   840.6   18.15       0    999.0
 239   22:20   48.9    66    0.1   254      0.6   840.6   18.15       0    999.0
 239   22:30   48.8    66    0.4   237      1.1   840.6   18.16       0    999.0
 239   22:40   48.4    68    0.2   246      0.6   840.6   18.15       0    999.0
 239   22:50   48.0    68    0.1   259      0.8   840.6   18.15       0    999.0
 239   23:00   47.7    69    0.4   254      0.8   840.6   18.15       0    999.0
 239   23:10   47.2    70    0.3   259      1.1   840.2   18.16       0    999.0
 239   23:20   46.9    70    0.9   261      1.6   840.2   18.15       0    999.0
 239   23:30   46.5    71    0.4   260      1.2   840.3   18.16       0    999.0
 239   23:40   46.2    71    0.5   254      1.2   840.7   18.15       0    999.0
 239   23:50   45.9    72    0.7   260      1.1   840.7   18.15       0    999.0
 240    0:00   45.6    73    0.7   251      1.3   840.6   18.15       0    999.0
 240    0:10   45.2    74    0.3   252      0.8   840.0   18.15       0    999.0
 240    0:20   44.8    75    0.6   266      1.1   840.3   18.15       0    999.0
 240    0:30   44.6    75    0.9   258      1.5   840.5   18.15       0    999.0
 240    0:40   44.3    76    0.2   256      1.0   840.0   18.15       0    999.0
 240    0:50   43.9    77    0.6   261      1.0   840.2   18.15       0    999.0
 240    1:00   43.8    77    1.1   266      1.5   840.3   18.15       0    999.0
 240    1:10   43.6    78    0.4   263      1.3   840.0   18.15       0    999.0
 240    1:20   43.3    78    0.5   262      1.0   840.0   18.15       0    999.0
 240    1:30   43.1    78    0.7   260      1.4   839.9   18.15       0    999.0
 240    1:40   42.9    79    0.9   268      1.3   840.0   18.15       0    999.0
 240    1:50   42.8    79    0.7   270      1.2   839.8   18.15       0    999.0
 240    2:00   42.5    80    0.8   244      1.6   839.7   18.15       0    999.0
 240    2:10   42.3    80    0.6   258      1.3   840.1   18.15       0    999.0
 240    2:20   42.2    80    0.8   257      1.3   839.8   18.15       0    999.0
 240    2:30   42.0    80    0.9   265      1.3   839.6   18.16       0    999.0
 240    2:40   41.9    81    0.5   254      1.0   840.2   18.15       0    999.0
 240    2:50   41.5    81    0.6   262      1.2   840.1   18.15       0    999.0
 240    3:00   41.3    82    0.8   261      1.2   840.0   18.16       0    999.0
 240    3:10   41.1    82    0.6   260      1.2   839.6   18.16       0    999.0
 240    3:20   41.0    82    0.6   262      1.0   839.8   18.15       0    999.0
 240    3:30   40.7    83    0.6   261      0.9   839.9   18.15       0    999.0
 240    3:40   40.5    83    0.3   264      1.0   839.5   18.15       0    999.0
 240    3:50   40.4    83    0.7   260      1.3   839.6   18.16       0    999.0
 240    4:00   40.2    84    0.3   267      1.0   839.8   18.15       0    999.0
 240    4:10   40.1    84    0.8   264      1.1   839.7   18.15       0    999.0
 240    4:20   39.8    85    0.5   259      0.9   839.6   18.15       0    999.0
 240    4:30   39.6    85    0.7   264      1.2   839.5   18.15       0    999.0
 240    4:40   39.5    85    0.6   260      1.1   839.3   18.15       0    999.0
 240    4:50   39.4    85    0.7   265      1.1   839.4   18.15       0    999.0
 240    5:00   39.2    85    0.7   264      1.1   839.5   18.15       0    999.0
 240    5:10   38.9    86    0.7   257      1.3   839.4   18.15       0    999.0
 240    5:20   38.8    86    0.4   261      1.1   839.6   18.16       1    999.0
 240    5:30   38.6    86    0.9   258      1.6   839.7   18.15       5    999.0
 240    5:40   38.5    86    0.7   262      1.3   839.3   18.16       8    999.0
 240    5:50   38.4    87    1.0   261      1.6   839.5   18.16      11    999.0
 240    6:00   38.5    86    0.8   267      1.2   839.6   18.16      13    999.0
 240    6:10   38.7    86    0.9   263      1.3   839.8   18.16      31    999.0
 240    6:20   39.3    86    0.8   264      1.2   839.5   18.16      61    999.0
 240    6:30   40.4    85    0.2   266      0.9   839.3   18.17     119    999.0
 240    6:40   42.5    81    0.0   268      0.5   839.7   18.17     184    999.0
 240    6:50   45.1    76    0.0     0      0.0   839.6   18.17     216    999.0
 240    7:00   46.8    57    0.0     0      0.0    76.3   18.17     243    999.0
 240    7:10   51.8    66    0.0     0      0.0   839.7   18.17     276    999.0
 240    7:20   53.9    63    0.0     0      0.0   839.5   18.17     333    999.0
 240    7:30   56.9    60    0.0     0      0.0   839.4   18.17     344    999.0
 240    7:40   58.7    58    0.0   229      0.9   839.8   18.16     370    999.0
 240    7:50   58.8    59    0.3   141      1.7   839.6   18.16     400    999.0
 240    8:00   60.6    56    0.8   119      2.4   839.5   18.16     421    999.0
 240    8:10   62.1    52    2.4   108      4.3   839.3   18.16     460    999.0
 240    8:20   64.1    48    3.2    90      5.2   839.2   18.16     495    999.0
 240    8:30   65.9    46    3.4    95      5.5   839.2   18.16     442    999.0
 240    8:40   67.0    45    2.7    86      5.1   839.4   18.16     503    999.0
 240    8:50   69.3    37    1.7   110      5.0   839.5   18.16     529    999.0
 240    9:00   71.6    31    2.0   120      5.6   839.5   18.15     582    999.0
 240    9:10   73.0    27    1.7   284      4.9   839.2   18.15     629    999.0
 240    9:20   73.7    28    2.6   126      5.8   839.4   18.15     638    999.0
 240    9:30   74.4    25    1.7   247      5.2   839.5   18.15     658    999.0
 240    9:40   75.1    25    2.4   172      6.4   839.6   18.15     664    999.0
 240    9:50   74.4    24    3.4   283      6.7   839.4   18.15     698    999.0
 240   10:00   74.8    24    2.6   246      7.1   839.2   18.15     703    999.0
 240   10:10   75.5    23    2.6   193      5.4   839.1   18.15     741    999.0
 240   10:20   75.8    22    2.5   145      5.9   839.1   18.14     628    999.0
 240   10:30   75.4    21    2.4   169      7.0   839.2   18.14     548    999.0
 240   10:40   75.0    23    2.3   253      6.5   839.6   18.14     503    999.0
 240   10:50   74.7    24    2.4   192      7.2   839.5   18.14     548    999.0
 240   11:00   75.7    24    2.2   167      5.4   839.4   18.14     667    999.0
 240   11:10   76.4    23    2.1   196      8.5   838.9   18.14     547    999.0
 240   11:20   75.6    23    2.2   271      6.2   839.1   18.14     567    999.0
 240   11:30   76.0    23    2.7   287      6.4   839.3   18.14     544    999.0
 240   11:40   75.2    24    2.7   257      5.5   839.2   18.14     395    999.0
 240   11:50   74.7    25    2.7   230      7.9   838.9   18.14     342    999.0
 240   12:00   74.5    25    2.3   236      5.2   838.6   18.14     465    999.0
 240   12:10   75.3    25    2.8   242      5.7   838.8   18.14     527    999.0
 240   12:20   76.2    24    2.6   240      5.6   838.7   18.14     709    999.0
 240   12:30   76.7    22    3.1   253      9.8   838.5   18.14     772    999.0
 240   12:40   77.1    22    3.2   296     10.7   838.2   18.13     819    999.0
 240   12:50   78.4    22    2.4   187      5.5   838.3   18.13     791    999.0
 240   13:00   79.1    21    3.0   266      6.5   838.3   18.13     707    999.0
 240   13:10   79.3    21    2.3   255      7.0   838.4   18.13     632    999.0
 240   13:20   78.4    21    3.2   254      7.7   838.5   18.14     669    999.0
 240   13:30   77.4    20    4.2   262      9.3   838.5   18.14     369    999.0
 240   13:40   75.7    22    2.2   256      4.4   838.0   18.14     300    999.0
 240   13:50   75.5    23    2.2   224      6.4   837.9   18.14     286    999.0
 240   14:00   75.2    23    2.5   176      5.6   837.8   18.14     316    999.0
 240   14:10   75.5    24    2.5   256      7.8   837.9   18.14     327    999.0
 240   14:20   75.3    25    2.8   301      9.6   838.0   18.14     316    999.0
 240   14:30   75.2    25    2.4   272      7.7   838.0   18.14     324    999.0
 240   14:40   75.0    26    2.6   139      6.3   838.1   18.14     389    999.0
 240   14:50   75.7    24    2.5   210      8.2   837.8   18.14     313    999.0
 240   15:00   74.6    25    3.3   264      6.9   837.4   18.14     274    999.0
 240   15:10   74.3    25    2.4   244     10.4   837.5   18.14     273    999.0
 240   15:20   74.6    25    2.9   282      6.2   837.5   18.14     416    999.0
 240   15:30   75.4    25    2.3   231      5.5   837.6   18.14     239    999.0
 240   15:40   75.1    27    2.3   274      5.2   837.7   18.13     450    999.0
 240   15:50   75.6    25    2.7   259      6.3   837.6   18.13     438    999.0
 240   16:00   74.9    26    2.9   262      7.2   837.5   18.14     206    999.0
 240   16:10   73.9    26    2.2   248      6.7   837.4   18.14     159    999.0
 240   16:20   73.7    28    1.6   162      4.0   837.3   18.14     252    999.0
 240   16:30   73.3    28    1.5   244      3.8   837.1   18.14     185    999.0
 240   16:40   73.4    28    1.4   240      3.6   837.4   18.14     294    999.0
 240   16:50   75.2    26    2.0   264      6.0   837.2   18.15     441    999.0
 240   17:00   75.9    25    1.5   254      4.2   837.0   18.15     428    999.0
 240   17:10   75.0    26    3.1   269      8.5   837.3   18.15     353    999.0
 240   17:20   74.1    26    2.0   265      5.8   837.3   18.15     293    999.0
 240   17:30   72.9    28    2.1   237      4.9   837.3   18.15     117    999.0
 240   17:40   71.4    29    2.6   279     10.4   837.1   18.15      70    999.0
 240   17:50   70.4    30    1.3   252      4.2   837.1   18.15      56    999.0
 240   18:00   69.7    31    1.4   254      6.6   837.1   18.15      41    999.0
 240   18:10   68.9    32    1.0   215      3.4   837.3   18.15      28    999.0
 240   18:20   68.1    33    1.5   273      5.4   837.3   18.15      17    999.0
 240   18:30   67.7    32    1.4   250      4.0   837.3   18.15      12    999.0
 240   18:40   67.3    33    1.1   303      3.1   837.3   18.15       6    999.0

Return to Sagehen Creek graphs page.


Western Regional Climate Center,wrcc@dri.edu